sensor_id;sensor_type;location;lat;lon;timestamp;P1;durP1;ratioP1;P2;durP2;ratioP2
72319;SDS011;60269;52.502;16.732;2023-02-27T00:01:17;8.97;;;1.73;;
72319;SDS011;60269;52.502;16.732;2023-02-27T00:04:49;9.18;;;2.05;;
72319;SDS011;60269;52.502;16.732;2023-02-27T00:08:22;8.38;;;1.50;;
72319;SDS011;60269;52.502;16.732;2023-02-27T00:11:54;9.27;;;1.50;;
72319;SDS011;60269;52.502;16.732;2023-02-27T00:15:27;13.77;;;1.75;;
72319;SDS011;60269;52.502;16.732;2023-02-27T00:19:01;9.68;;;1.83;;
72319;SDS011;60269;52.502;16.732;2023-02-27T00:22:35;9.95;;;1.70;;
72319;SDS011;60269;52.502;16.732;2023-02-27T00:26:08;9.70;;;1.97;;
72319;SDS011;60269;52.502;16.732;2023-02-27T00:29:42;12.00;;;1.73;;
72319;SDS011;60269;52.502;16.732;2023-02-27T00:33:14;8.65;;;2.05;;
72319;SDS011;60269;52.502;16.732;2023-02-27T00:36:46;13.10;;;2.00;;
72319;SDS011;60269;52.502;16.732;2023-02-27T00:40:18;12.27;;;1.98;;
72319;SDS011;60269;52.502;16.732;2023-02-27T00:43:51;14.32;;;3.60;;
72319;SDS011;60269;52.502;16.732;2023-02-27T00:47:23;15.23;;;4.73;;
72319;SDS011;60269;52.502;16.732;2023-02-27T00:50:55;18.13;;;5.63;;
72319;SDS011;60269;52.502;16.732;2023-02-27T00:54:27;16.05;;;4.82;;
72319;SDS011;60269;52.502;16.732;2023-02-27T00:58:01;16.83;;;5.22;;
72319;SDS011;60269;52.502;16.732;2023-02-27T01:01:35;14.57;;;5.13;;
72319;SDS011;60269;52.502;16.732;2023-02-27T01:05:08;11.38;;;3.60;;
72319;SDS011;60269;52.502;16.732;2023-02-27T01:08:41;11.02;;;2.80;;
72319;SDS011;60269;52.502;16.732;2023-02-27T01:12:13;12.30;;;3.70;;
72319;SDS011;60269;52.502;16.732;2023-02-27T01:15:45;9.32;;;2.08;;
72319;SDS011;60269;52.502;16.732;2023-02-27T01:19:17;9.18;;;3.00;;
72319;SDS011;60269;52.502;16.732;2023-02-27T01:22:49;11.73;;;2.90;;
72319;SDS011;60269;52.502;16.732;2023-02-27T01:26:21;9.32;;;2.15;;
72319;SDS011;60269;52.502;16.732;2023-02-27T01:29:53;5.25;;;0.95;;
72319;SDS011;60269;52.502;16.732;2023-02-27T01:33:25;5.47;;;1.08;;
72319;SDS011;60269;52.502;16.732;2023-02-27T01:36:57;8.87;;;1.33;;
72319;SDS011;60269;52.502;16.732;2023-02-27T01:40:35;7.75;;;1.35;;
72319;SDS011;60269;52.502;16.732;2023-02-27T01:44:09;6.30;;;1.08;;
72319;SDS011;60269;52.502;16.732;2023-02-27T01:47:46;13.10;;;1.07;;
72319;SDS011;60269;52.502;16.732;2023-02-27T01:51:21;7.45;;;1.25;;
72319;SDS011;60269;52.502;16.732;2023-02-27T01:54:53;6.32;;;1.10;;
72319;SDS011;60269;52.502;16.732;2023-02-27T01:58:26;9.63;;;1.47;;
72319;SDS011;60269;52.502;16.732;2023-02-27T02:01:59;9.32;;;0.98;;
72319;SDS011;60269;52.502;16.732;2023-02-27T02:05:33;8.20;;;2.00;;
72319;SDS011;60269;52.502;16.732;2023-02-27T02:09:06;8.20;;;2.65;;
72319;SDS011;60269;52.502;16.732;2023-02-27T02:12:40;6.70;;;1.00;;
72319;SDS011;60269;52.502;16.732;2023-02-27T02:16:26;8.32;;;1.65;;
72319;SDS011;60269;52.502;16.732;2023-02-27T02:51:36;4.93;;;1.37;;
72319;SDS011;60269;52.502;16.732;2023-02-27T03:02:38;6.30;;;0.87;;
72319;SDS011;60269;52.502;16.732;2023-02-27T03:06:19;11.55;;;1.40;;
72319;SDS011;60269;52.502;16.732;2023-02-27T03:09:56;7.05;;;1.60;;
72319;SDS011;60269;52.502;16.732;2023-02-27T03:13:36;5.33;;;1.23;;
72319;SDS011;60269;52.502;16.732;2023-02-27T03:17:37;4.60;;;1.02;;
72319;SDS011;60269;52.502;16.732;2023-02-27T03:21:12;5.82;;;1.58;;
72319;SDS011;60269;52.502;16.732;2023-02-27T03:24:52;13.35;;;2.00;;
72319;SDS011;60269;52.502;16.732;2023-02-27T03:28:28;8.43;;;1.67;;
72319;SDS011;60269;52.502;16.732;2023-02-27T03:32:48;7.05;;;1.42;;
72319;SDS011;60269;52.502;16.732;2023-02-27T03:43:20;8.32;;;1.48;;
72319;SDS011;60269;52.502;16.732;2023-02-27T03:46:57;7.95;;;1.33;;
72319;SDS011;60269;52.502;16.732;2023-02-27T03:50:29;6.83;;;1.53;;
72319;SDS011;60269;52.502;16.732;2023-02-27T03:57:45;7.50;;;1.38;;
72319;SDS011;60269;52.502;16.732;2023-02-27T04:01:19;6.38;;;1.10;;
72319;SDS011;60269;52.502;16.732;2023-02-27T04:04:52;10.53;;;1.13;;
72319;SDS011;60269;52.502;16.732;2023-02-27T04:24:21;6.18;;;0.95;;
72319;SDS011;60269;52.502;16.732;2023-02-27T04:28:16;8.40;;;1.40;;
72319;SDS011;60269;52.502;16.732;2023-02-27T04:31:59;10.13;;;1.40;;
72319;SDS011;60269;52.502;16.732;2023-02-27T04:35:46;7.00;;;1.20;;
72319;SDS011;60269;52.502;16.732;2023-02-27T04:39:35;6.53;;;1.30;;
72319;SDS011;60269;52.502;16.732;2023-02-27T04:43:12;7.07;;;1.60;;
72319;SDS011;60269;52.502;16.732;2023-02-27T04:46:45;7.90;;;1.70;;
72319;SDS011;60269;52.502;16.732;2023-02-27T04:50:21;6.90;;;1.27;;
72319;SDS011;60269;52.502;16.732;2023-02-27T04:54:01;9.43;;;1.57;;
72319;SDS011;60269;52.502;16.732;2023-02-27T04:57:48;6.95;;;1.75;;
72319;SDS011;60269;52.502;16.732;2023-02-27T05:01:30;5.72;;;1.27;;
72319;SDS011;60269;52.502;16.732;2023-02-27T05:05:15;5.20;;;1.10;;
72319;SDS011;60269;52.502;16.732;2023-02-27T05:12:42;7.03;;;1.65;;
72319;SDS011;60269;52.502;16.732;2023-02-27T05:16:28;6.05;;;1.20;;
72319;SDS011;60269;52.502;16.732;2023-02-27T05:20:06;10.30;;;1.20;;
72319;SDS011;60269;52.502;16.732;2023-02-27T05:27:43;7.03;;;1.00;;
72319;SDS011;60269;52.502;16.732;2023-02-27T05:31:28;9.07;;;1.83;;
72319;SDS011;60269;52.502;16.732;2023-02-27T05:38:44;7.85;;;1.80;;
72319;SDS011;60269;52.502;16.732;2023-02-27T05:42:27;10.07;;;1.40;;
72319;SDS011;60269;52.502;16.732;2023-02-27T05:46:14;11.45;;;2.58;;
72319;SDS011;60269;52.502;16.732;2023-02-27T05:49:54;8.50;;;2.20;;
72319;SDS011;60269;52.502;16.732;2023-02-27T05:53:32;8.32;;;2.10;;
72319;SDS011;60269;52.502;16.732;2023-02-27T05:57:09;10.10;;;1.97;;
72319;SDS011;60269;52.502;16.732;2023-02-27T06:01:02;7.68;;;1.73;;
72319;SDS011;60269;52.502;16.732;2023-02-27T06:04:36;8.13;;;2.13;;
72319;SDS011;60269;52.502;16.732;2023-02-27T06:08:09;6.37;;;1.77;;
72319;SDS011;60269;52.502;16.732;2023-02-27T06:11:42;10.63;;;2.83;;
72319;SDS011;60269;52.502;16.732;2023-02-27T06:15:17;13.90;;;2.40;;
72319;SDS011;60269;52.502;16.732;2023-02-27T06:18:52;8.50;;;2.23;;
72319;SDS011;60269;52.502;16.732;2023-02-27T06:22:26;8.85;;;1.83;;
72319;SDS011;60269;52.502;16.732;2023-02-27T06:25:58;10.63;;;2.22;;
72319;SDS011;60269;52.502;16.732;2023-02-27T06:29:31;8.55;;;1.83;;
72319;SDS011;60269;52.502;16.732;2023-02-27T06:33:03;8.43;;;1.87;;
72319;SDS011;60269;52.502;16.732;2023-02-27T06:36:36;8.85;;;1.77;;
72319;SDS011;60269;52.502;16.732;2023-02-27T06:40:08;9.32;;;2.40;;
72319;SDS011;60269;52.502;16.732;2023-02-27T06:43:47;11.40;;;3.33;;
72319;SDS011;60269;52.502;16.732;2023-02-27T06:47:19;10.77;;;3.15;;
72319;SDS011;60269;52.502;16.732;2023-02-27T06:50:52;11.05;;;3.47;;
72319;SDS011;60269;52.502;16.732;2023-02-27T06:54:24;5.80;;;1.87;;
72319;SDS011;60269;52.502;16.732;2023-02-27T06:57:56;6.78;;;1.65;;
72319;SDS011;60269;52.502;16.732;2023-02-27T07:01:28;9.63;;;1.95;;
72319;SDS011;60269;52.502;16.732;2023-02-27T07:05:00;7.30;;;1.90;;
72319;SDS011;60269;52.502;16.732;2023-02-27T07:08:38;8.93;;;2.03;;
72319;SDS011;60269;52.502;16.732;2023-02-27T07:12:31;11.10;;;3.10;;
72319;SDS011;60269;52.502;16.732;2023-02-27T07:16:03;18.63;;;5.03;;
72319;SDS011;60269;52.502;16.732;2023-02-27T07:19:35;13.87;;;3.80;;
72319;SDS011;60269;52.502;16.732;2023-02-27T07:23:07;14.65;;;4.38;;
72319;SDS011;60269;52.502;16.732;2023-02-27T07:26:41;9.98;;;2.58;;
72319;SDS011;60269;52.502;16.732;2023-02-27T07:30:13;11.20;;;3.70;;
72319;SDS011;60269;52.502;16.732;2023-02-27T07:33:46;12.88;;;3.40;;
72319;SDS011;60269;52.502;16.732;2023-02-27T07:37:18;8.27;;;2.13;;
72319;SDS011;60269;52.502;16.732;2023-02-27T07:40:51;8.55;;;2.47;;
72319;SDS011;60269;52.502;16.732;2023-02-27T07:44:24;8.13;;;1.63;;
72319;SDS011;60269;52.502;16.732;2023-02-27T07:47:56;8.07;;;2.00;;
72319;SDS011;60269;52.502;16.732;2023-02-27T07:51:28;9.68;;;1.90;;
72319;SDS011;60269;52.502;16.732;2023-02-27T07:55:02;8.60;;;2.23;;
72319;SDS011;60269;52.502;16.732;2023-02-27T07:58:34;7.72;;;1.90;;
72319;SDS011;60269;52.502;16.732;2023-02-27T08:02:06;11.35;;;2.67;;
72319;SDS011;60269;52.502;16.732;2023-02-27T08:05:38;9.37;;;2.47;;
72319;SDS011;60269;52.502;16.732;2023-02-27T08:09:10;8.02;;;2.00;;
72319;SDS011;60269;52.502;16.732;2023-02-27T08:12:42;8.98;;;2.25;;
72319;SDS011;60269;52.502;16.732;2023-02-27T08:16:15;12.32;;;3.22;;
72319;SDS011;60269;52.502;16.732;2023-02-27T08:19:47;16.63;;;3.20;;
72319;SDS011;60269;52.502;16.732;2023-02-27T08:23:20;12.90;;;2.70;;
72319;SDS011;60269;52.502;16.732;2023-02-27T08:26:51;11.93;;;2.85;;
72319;SDS011;60269;52.502;16.732;2023-02-27T08:30:24;8.13;;;2.30;;
72319;SDS011;60269;52.502;16.732;2023-02-27T08:33:56;9.48;;;2.45;;
72319;SDS011;60269;52.502;16.732;2023-02-27T08:37:41;7.60;;;2.35;;
72319;SDS011;60269;52.502;16.732;2023-02-27T08:41:12;15.60;;;4.07;;
72319;SDS011;60269;52.502;16.732;2023-02-27T08:44:45;8.55;;;2.78;;
72319;SDS011;60269;52.502;16.732;2023-02-27T08:48:17;8.07;;;2.20;;
72319;SDS011;60269;52.502;16.732;2023-02-27T08:51:50;14.13;;;2.95;;
72319;SDS011;60269;52.502;16.732;2023-02-27T08:55:22;13.40;;;3.37;;
72319;SDS011;60269;52.502;16.732;2023-02-27T08:58:55;11.25;;;3.38;;
72319;SDS011;60269;52.502;16.732;2023-02-27T09:02:27;12.73;;;3.80;;
72319;SDS011;60269;52.502;16.732;2023-02-27T09:06:00;10.73;;;2.93;;
72319;SDS011;60269;52.502;16.732;2023-02-27T09:09:32;9.75;;;2.20;;
72319;SDS011;60269;52.502;16.732;2023-02-27T09:13:04;9.88;;;2.35;;
72319;SDS011;60269;52.502;16.732;2023-02-27T09:16:36;9.63;;;2.40;;
72319;SDS011;60269;52.502;16.732;2023-02-27T09:20:11;9.00;;;2.40;;
72319;SDS011;60269;52.502;16.732;2023-02-27T09:23:43;9.85;;;1.90;;
72319;SDS011;60269;52.502;16.732;2023-02-27T09:27:15;10.07;;;2.25;;
72319;SDS011;60269;52.502;16.732;2023-02-27T09:30:48;7.93;;;2.00;;
72319;SDS011;60269;52.502;16.732;2023-02-27T09:34:20;8.68;;;1.95;;
72319;SDS011;60269;52.502;16.732;2023-02-27T09:37:52;9.45;;;2.15;;
72319;SDS011;60269;52.502;16.732;2023-02-27T09:45:24;8.98;;;1.95;;
72319;SDS011;60269;52.502;16.732;2023-02-27T09:48:59;7.78;;;2.17;;
72319;SDS011;60269;52.502;16.732;2023-02-27T09:52:33;10.80;;;3.40;;
72319;SDS011;60269;52.502;16.732;2023-02-27T09:56:08;8.88;;;2.58;;
72319;SDS011;60269;52.502;16.732;2023-02-27T09:59:49;7.97;;;2.15;;
72319;SDS011;60269;52.502;16.732;2023-02-27T10:03:37;7.28;;;1.85;;
72319;SDS011;60269;52.502;16.732;2023-02-27T10:15:40;4.82;;;1.25;;
72319;SDS011;60269;52.502;16.732;2023-02-27T10:19:26;7.63;;;2.00;;
72319;SDS011;60269;52.502;16.732;2023-02-27T10:23:05;7.00;;;1.50;;
72319;SDS011;60269;52.502;16.732;2023-02-27T10:26:44;6.55;;;1.95;;
72319;SDS011;60269;52.502;16.732;2023-02-27T10:33:59;6.35;;;1.10;;
72319;SDS011;60269;52.502;16.732;2023-02-27T10:37:32;8.55;;;2.25;;
72319;SDS011;60269;52.502;16.732;2023-02-27T10:41:08;5.75;;;0.98;;
72319;SDS011;60269;52.502;16.732;2023-02-27T10:44:43;7.80;;;1.53;;
72319;SDS011;60269;52.502;16.732;2023-02-27T10:48:15;4.65;;;1.05;;
72319;SDS011;60269;52.502;16.732;2023-02-27T10:55:41;5.33;;;0.93;;
72319;SDS011;60269;52.502;16.732;2023-02-27T11:02:52;8.32;;;1.60;;
72319;SDS011;60269;52.502;16.732;2023-02-27T11:06:25;8.07;;;1.57;;
72319;SDS011;60269;52.502;16.732;2023-02-27T11:10:04;5.82;;;1.42;;
72319;SDS011;60269;52.502;16.732;2023-02-27T11:13:48;28.67;;;9.82;;
72319;SDS011;60269;52.502;16.732;2023-02-27T11:17:30;6.53;;;1.30;;
72319;SDS011;60269;52.502;16.732;2023-02-27T11:21:25;5.47;;;0.83;;
72319;SDS011;60269;52.502;16.732;2023-02-27T11:32:43;8.67;;;1.30;;
72319;SDS011;60269;52.502;16.732;2023-02-27T11:36:41;5.57;;;0.43;;
72319;SDS011;60269;52.502;16.732;2023-02-27T11:40:15;3.45;;;0.60;;
72319;SDS011;60269;52.502;16.732;2023-02-27T11:43:50;4.43;;;0.70;;
72319;SDS011;60269;52.502;16.732;2023-02-27T11:47:24;13.88;;;3.83;;
72319;SDS011;60269;52.502;16.732;2023-02-27T11:54:55;5.72;;;1.00;;
72319;SDS011;60269;52.502;16.732;2023-02-27T11:58:31;5.37;;;0.80;;
72319;SDS011;60269;52.502;16.732;2023-02-27T12:02:19;4.38;;;0.88;;
72319;SDS011;60269;52.502;16.732;2023-02-27T12:06:17;5.70;;;0.63;;
72319;SDS011;60269;52.502;16.732;2023-02-27T12:09:54;6.57;;;1.10;;
72319;SDS011;60269;52.502;16.732;2023-02-27T12:13:38;5.32;;;0.77;;
72319;SDS011;60269;52.502;16.732;2023-02-27T12:17:22;5.15;;;0.90;;
72319;SDS011;60269;52.502;16.732;2023-02-27T12:21:01;5.87;;;1.00;;
72319;SDS011;60269;52.502;16.732;2023-02-27T12:28:44;7.93;;;0.77;;
72319;SDS011;60269;52.502;16.732;2023-02-27T12:32:24;5.05;;;0.90;;
72319;SDS011;60269;52.502;16.732;2023-02-27T12:36:00;5.67;;;0.83;;
72319;SDS011;60269;52.502;16.732;2023-02-27T12:39:33;4.93;;;0.57;;
72319;SDS011;60269;52.502;16.732;2023-02-27T12:51:20;7.88;;;0.68;;
72319;SDS011;60269;52.502;16.732;2023-02-27T13:03:11;4.38;;;0.60;;
72319;SDS011;60269;52.502;16.732;2023-02-27T13:14:54;5.60;;;0.60;;
72319;SDS011;60269;52.502;16.732;2023-02-27T13:18:39;5.38;;;1.00;;
72319;SDS011;60269;52.502;16.732;2023-02-27T13:26:25;10.53;;;1.77;;
72319;SDS011;60269;52.502;16.732;2023-02-27T13:37:49;6.73;;;1.73;;
72319;SDS011;60269;52.502;16.732;2023-02-27T13:44:59;10.98;;;1.30;;
72319;SDS011;60269;52.502;16.732;2023-02-27T13:52:05;4.93;;;0.97;;
72319;SDS011;60269;52.502;16.732;2023-02-27T13:55:38;5.35;;;1.38;;
72319;SDS011;60269;52.502;16.732;2023-02-27T14:02:56;3.87;;;0.57;;
72319;SDS011;60269;52.502;16.732;2023-02-27T14:06:33;4.35;;;0.73;;
72319;SDS011;60269;52.502;16.732;2023-02-27T14:10:21;6.35;;;0.90;;
72319;SDS011;60269;52.502;16.732;2023-02-27T14:13:57;4.90;;;0.77;;
72319;SDS011;60269;52.502;16.732;2023-02-27T14:21:07;5.03;;;1.05;;
72319;SDS011;60269;52.502;16.732;2023-02-27T14:24:43;7.30;;;1.23;;
72319;SDS011;60269;52.502;16.732;2023-02-27T14:28:34;4.93;;;1.07;;
72319;SDS011;60269;52.502;16.732;2023-02-27T14:32:18;8.18;;;1.00;;
72319;SDS011;60269;52.502;16.732;2023-02-27T14:35:58;5.68;;;0.90;;
72319;SDS011;60269;52.502;16.732;2023-02-27T14:39:33;9.13;;;1.90;;
72319;SDS011;60269;52.502;16.732;2023-02-27T14:43:41;10.15;;;1.92;;
72319;SDS011;60269;52.502;16.732;2023-02-27T14:51:06;22.27;;;4.00;;
72319;SDS011;60269;52.502;16.732;2023-02-27T14:54:37;7.30;;;2.05;;
72319;SDS011;60269;52.502;16.732;2023-02-27T15:01:52;12.32;;;2.42;;
72319;SDS011;60269;52.502;16.732;2023-02-27T15:05:29;8.83;;;2.60;;
72319;SDS011;60269;52.502;16.732;2023-02-27T15:09:05;11.63;;;2.30;;
72319;SDS011;60269;52.502;16.732;2023-02-27T15:12:38;15.10;;;4.03;;
72319;SDS011;60269;52.502;16.732;2023-02-27T15:16:44;13.43;;;2.70;;
72319;SDS011;60269;52.502;16.732;2023-02-27T15:23:52;9.48;;;2.30;;
72319;SDS011;60269;52.502;16.732;2023-02-27T15:27:29;15.10;;;4.73;;
72319;SDS011;60269;52.502;16.732;2023-02-27T15:31:01;16.85;;;5.13;;
72319;SDS011;60269;52.502;16.732;2023-02-27T15:34:34;16.48;;;5.25;;
72319;SDS011;60269;52.502;16.732;2023-02-27T15:38:18;15.20;;;4.40;;
72319;SDS011;60269;52.502;16.732;2023-02-27T15:42:00;23.63;;;5.40;;
72319;SDS011;60269;52.502;16.732;2023-02-27T15:45:33;21.10;;;6.20;;
72319;SDS011;60269;52.502;16.732;2023-02-27T15:49:09;14.93;;;3.47;;
72319;SDS011;60269;52.502;16.732;2023-02-27T15:52:53;10.43;;;2.90;;
72319;SDS011;60269;52.502;16.732;2023-02-27T15:56:31;8.13;;;2.30;;
72319;SDS011;60269;52.502;16.732;2023-02-27T16:00:08;10.43;;;1.80;;
72319;SDS011;60269;52.502;16.732;2023-02-27T16:03:42;10.53;;;2.27;;
72319;SDS011;60269;52.502;16.732;2023-02-27T16:07:25;12.43;;;2.55;;
72319;SDS011;60269;52.502;16.732;2023-02-27T16:11:04;16.73;;;3.53;;
72319;SDS011;60269;52.502;16.732;2023-02-27T16:14:38;14.50;;;3.40;;
72319;SDS011;60269;52.502;16.732;2023-02-27T16:25:37;14.13;;;3.75;;
72319;SDS011;60269;52.502;16.732;2023-02-27T16:29:17;18.37;;;4.17;;
72319;SDS011;60269;52.502;16.732;2023-02-27T16:32:55;15.88;;;3.40;;
72319;SDS011;60269;52.502;16.732;2023-02-27T16:36:30;14.82;;;3.80;;
72319;SDS011;60269;52.502;16.732;2023-02-27T16:40:13;16.60;;;3.23;;
72319;SDS011;60269;52.502;16.732;2023-02-27T16:43:51;12.90;;;2.85;;
72319;SDS011;60269;52.502;16.732;2023-02-27T16:47:24;13.07;;;3.53;;
72319;SDS011;60269;52.502;16.732;2023-02-27T16:50:56;12.65;;;3.35;;
72319;SDS011;60269;52.502;16.732;2023-02-27T16:54:28;10.97;;;3.33;;
72319;SDS011;60269;52.502;16.732;2023-02-27T16:58:00;13.77;;;4.95;;
72319;SDS011;60269;52.502;16.732;2023-02-27T17:01:32;16.95;;;5.38;;
72319;SDS011;60269;52.502;16.732;2023-02-27T17:05:05;17.63;;;5.73;;
72319;SDS011;60269;52.502;16.732;2023-02-27T17:08:37;19.45;;;6.43;;
72319;SDS011;60269;52.502;16.732;2023-02-27T17:12:11;24.25;;;6.75;;
72319;SDS011;60269;52.502;16.732;2023-02-27T17:15:44;15.93;;;5.20;;
72319;SDS011;60269;52.502;16.732;2023-02-27T17:19:16;16.17;;;4.53;;
72319;SDS011;60269;52.502;16.732;2023-02-27T17:22:48;16.10;;;4.65;;
72319;SDS011;60269;52.502;16.732;2023-02-27T17:26:21;14.23;;;4.20;;
72319;SDS011;60269;52.502;16.732;2023-02-27T17:29:53;16.33;;;4.80;;
72319;SDS011;60269;52.502;16.732;2023-02-27T17:33:25;30.75;;;8.80;;
72319;SDS011;60269;52.502;16.732;2023-02-27T17:36:57;29.00;;;8.98;;
72319;SDS011;60269;52.502;16.732;2023-02-27T17:40:29;27.20;;;8.90;;
72319;SDS011;60269;52.502;16.732;2023-02-27T17:44:01;29.23;;;9.75;;
72319;SDS011;60269;52.502;16.732;2023-02-27T17:47:34;34.45;;;11.57;;
72319;SDS011;60269;52.502;16.732;2023-02-27T17:51:07;37.73;;;13.33;;
72319;SDS011;60269;52.502;16.732;2023-02-27T17:54:42;34.67;;;13.43;;
72319;SDS011;60269;52.502;16.732;2023-02-27T17:58:14;37.10;;;13.40;;
72319;SDS011;60269;52.502;16.732;2023-02-27T18:01:49;43.47;;;14.93;;
72319;SDS011;60269;52.502;16.732;2023-02-27T18:05:21;27.60;;;11.33;;
72319;SDS011;60269;52.502;16.732;2023-02-27T18:08:53;35.30;;;11.85;;
72319;SDS011;60269;52.502;16.732;2023-02-27T18:12:25;27.42;;;11.68;;
72319;SDS011;60269;52.502;16.732;2023-02-27T18:15:58;36.73;;;12.43;;
72319;SDS011;60269;52.502;16.732;2023-02-27T18:19:30;55.55;;;16.63;;
72319;SDS011;60269;52.502;16.732;2023-02-27T18:23:03;31.70;;;11.90;;
72319;SDS011;60269;52.502;16.732;2023-02-27T18:26:39;29.63;;;9.83;;
72319;SDS011;60269;52.502;16.732;2023-02-27T18:30:11;33.63;;;9.73;;
72319;SDS011;60269;52.502;16.732;2023-02-27T18:34:09;26.55;;;8.63;;
72319;SDS011;60269;52.502;16.732;2023-02-27T18:37:42;26.73;;;7.97;;
72319;SDS011;60269;52.502;16.732;2023-02-27T18:41:14;30.83;;;10.17;;
72319;SDS011;60269;52.502;16.732;2023-02-27T18:44:51;38.08;;;12.82;;
72319;SDS011;60269;52.502;16.732;2023-02-27T18:48:24;45.35;;;14.95;;
72319;SDS011;60269;52.502;16.732;2023-02-27T18:52:08;45.33;;;15.03;;
72319;SDS011;60269;52.502;16.732;2023-02-27T18:55:40;39.95;;;14.27;;
72319;SDS011;60269;52.502;16.732;2023-02-27T18:59:12;44.25;;;14.38;;
72319;SDS011;60269;52.502;16.732;2023-02-27T19:02:47;47.17;;;15.40;;
72319;SDS011;60269;52.502;16.732;2023-02-27T19:06:29;54.00;;;18.25;;
72319;SDS011;60269;52.502;16.732;2023-02-27T19:10:06;54.40;;;19.55;;
72319;SDS011;60269;52.502;16.732;2023-02-27T19:13:44;72.07;;;23.90;;
72319;SDS011;60269;52.502;16.732;2023-02-27T19:17:20;54.27;;;18.77;;
72319;SDS011;60269;52.502;16.732;2023-02-27T19:20:52;54.92;;;20.55;;
72319;SDS011;60269;52.502;16.732;2023-02-27T19:24:26;52.15;;;17.63;;
72319;SDS011;60269;52.502;16.732;2023-02-27T19:28:00;42.73;;;15.67;;
72319;SDS011;60269;52.502;16.732;2023-02-27T19:31:33;61.28;;;18.42;;
72319;SDS011;60269;52.502;16.732;2023-02-27T19:35:06;40.15;;;15.55;;
72319;SDS011;60269;52.502;16.732;2023-02-27T19:38:40;42.03;;;16.27;;
72319;SDS011;60269;52.502;16.732;2023-02-27T19:42:12;41.05;;;15.15;;
72319;SDS011;60269;52.502;16.732;2023-02-27T19:45:44;40.97;;;14.52;;
72319;SDS011;60269;52.502;16.732;2023-02-27T19:49:17;43.05;;;12.95;;
72319;SDS011;60269;52.502;16.732;2023-02-27T19:52:50;35.97;;;12.00;;
72319;SDS011;60269;52.502;16.732;2023-02-27T19:56:24;25.73;;;9.95;;
72319;SDS011;60269;52.502;16.732;2023-02-27T19:59:57;31.40;;;10.27;;
72319;SDS011;60269;52.502;16.732;2023-02-27T20:03:31;28.47;;;10.43;;
72319;SDS011;60269;52.502;16.732;2023-02-27T20:07:04;30.83;;;10.25;;
72319;SDS011;60269;52.502;16.732;2023-02-27T20:10:37;37.28;;;11.45;;
72319;SDS011;60269;52.502;16.732;2023-02-27T20:14:09;41.07;;;13.63;;
72319;SDS011;60269;52.502;16.732;2023-02-27T20:17:42;50.40;;;15.82;;
72319;SDS011;60269;52.502;16.732;2023-02-27T20:21:15;57.28;;;17.42;;
72319;SDS011;60269;52.502;16.732;2023-02-27T20:24:49;53.35;;;17.70;;
72319;SDS011;60269;52.502;16.732;2023-02-27T20:28:25;55.47;;;17.77;;
72319;SDS011;60269;52.502;16.732;2023-02-27T20:32:09;53.08;;;17.48;;
72319;SDS011;60269;52.502;16.732;2023-02-27T20:35:42;46.72;;;16.25;;
72319;SDS011;60269;52.502;16.732;2023-02-27T20:39:14;42.33;;;15.77;;
72319;SDS011;60269;52.502;16.732;2023-02-27T20:42:49;40.17;;;14.48;;
72319;SDS011;60269;52.502;16.732;2023-02-27T20:46:29;31.17;;;9.65;;
72319;SDS011;60269;52.502;16.732;2023-02-27T20:50:05;26.50;;;8.70;;
72319;SDS011;60269;52.502;16.732;2023-02-27T20:53:44;25.50;;;8.73;;
72319;SDS011;60269;52.502;16.732;2023-02-27T20:57:26;24.02;;;7.70;;
72319;SDS011;60269;52.502;16.732;2023-02-27T21:00:59;22.63;;;7.22;;
72319;SDS011;60269;52.502;16.732;2023-02-27T21:04:34;24.57;;;8.37;;
72319;SDS011;60269;52.502;16.732;2023-02-27T21:08:14;26.27;;;9.48;;
72319;SDS011;60269;52.502;16.732;2023-02-27T21:11:49;28.08;;;9.00;;
72319;SDS011;60269;52.502;16.732;2023-02-27T21:15:25;37.10;;;11.17;;
72319;SDS011;60269;52.502;16.732;2023-02-27T21:18:57;35.63;;;11.38;;
72319;SDS011;60269;52.502;16.732;2023-02-27T21:22:30;47.30;;;14.25;;
72319;SDS011;60269;52.502;16.732;2023-02-27T21:26:03;51.67;;;15.10;;
72319;SDS011;60269;52.502;16.732;2023-02-27T21:29:37;45.15;;;15.00;;
72319;SDS011;60269;52.502;16.732;2023-02-27T21:33:09;50.00;;;14.90;;
72319;SDS011;60269;52.502;16.732;2023-02-27T21:36:41;43.67;;;15.20;;
72319;SDS011;60269;52.502;16.732;2023-02-27T21:40:15;39.53;;;14.17;;
72319;SDS011;60269;52.502;16.732;2023-02-27T21:43:48;38.53;;;12.70;;
72319;SDS011;60269;52.502;16.732;2023-02-27T21:47:20;42.42;;;13.50;;
72319;SDS011;60269;52.502;16.732;2023-02-27T21:50:56;39.97;;;12.57;;
72319;SDS011;60269;52.502;16.732;2023-02-27T21:54:28;31.83;;;11.25;;
72319;SDS011;60269;52.502;16.732;2023-02-27T21:58:00;29.45;;;10.13;;
72319;SDS011;60269;52.502;16.732;2023-02-27T22:01:34;36.03;;;10.60;;
72319;SDS011;60269;52.502;16.732;2023-02-27T22:05:07;34.55;;;10.48;;
72319;SDS011;60269;52.502;16.732;2023-02-27T22:08:43;26.63;;;10.23;;
72319;SDS011;60269;52.502;16.732;2023-02-27T22:12:17;29.95;;;9.55;;
72319;SDS011;60269;52.502;16.732;2023-02-27T22:15:50;26.63;;;9.27;;
72319;SDS011;60269;52.502;16.732;2023-02-27T22:19:24;31.73;;;10.20;;
72319;SDS011;60269;52.502;16.732;2023-02-27T22:23:00;31.50;;;10.40;;
72319;SDS011;60269;52.502;16.732;2023-02-27T22:26:35;41.83;;;11.60;;
72319;SDS011;60269;52.502;16.732;2023-02-27T22:30:07;45.67;;;13.85;;
72319;SDS011;60269;52.502;16.732;2023-02-27T22:33:40;38.13;;;13.00;;
72319;SDS011;60269;52.502;16.732;2023-02-27T22:37:13;38.67;;;11.50;;
72319;SDS011;60269;52.502;16.732;2023-02-27T22:40:47;30.17;;;10.45;;
72319;SDS011;60269;52.502;16.732;2023-02-27T22:44:18;30.88;;;10.93;;
72319;SDS011;60269;52.502;16.732;2023-02-27T22:47:51;31.48;;;10.52;;
72319;SDS011;60269;52.502;16.732;2023-02-27T22:51:23;38.00;;;13.33;;
72319;SDS011;60269;52.502;16.732;2023-02-27T22:54:58;38.60;;;14.13;;
72319;SDS011;60269;52.502;16.732;2023-02-27T22:58:31;38.55;;;12.98;;
72319;SDS011;60269;52.502;16.732;2023-02-27T23:02:08;35.47;;;11.87;;
72319;SDS011;60269;52.502;16.732;2023-02-27T23:05:46;38.42;;;14.23;;
72319;SDS011;60269;52.502;16.732;2023-02-27T23:09:19;39.05;;;13.73;;
72319;SDS011;60269;52.502;16.732;2023-02-27T23:12:55;35.67;;;12.43;;
72319;SDS011;60269;52.502;16.732;2023-02-27T23:16:27;46.25;;;17.20;;
72319;SDS011;60269;52.502;16.732;2023-02-27T23:19:59;36.20;;;12.90;;
72319;SDS011;60269;52.502;16.732;2023-02-27T23:23:31;47.45;;;16.38;;
72319;SDS011;60269;52.502;16.732;2023-02-27T23:27:03;53.20;;;15.30;;
72319;SDS011;60269;52.502;16.732;2023-02-27T23:30:55;41.53;;;13.63;;
72319;SDS011;60269;52.502;16.732;2023-02-27T23:34:27;49.03;;;14.43;;
72319;SDS011;60269;52.502;16.732;2023-02-27T23:38:18;40.43;;;12.93;;
72319;SDS011;60269;52.502;16.732;2023-02-27T23:41:50;53.13;;;15.25;;
72319;SDS011;60269;52.502;16.732;2023-02-27T23:45:22;48.30;;;15.55;;
72319;SDS011;60269;52.502;16.732;2023-02-27T23:48:55;63.73;;;21.37;;
72319;SDS011;60269;52.502;16.732;2023-02-27T23:52:30;54.58;;;20.20;;
72319;SDS011;60269;52.502;16.732;2023-02-27T23:59:48;53.80;;;19.00;;
